Weather at San Luis de Ocosingo Airport

Public forecast

Using degrees Celsius for public forecast. Weather courtesy of forecast.io.

Closest aviation weather report (METAR) to San Luis de Ocosingo Airport

Report is more than 6 hours old.

Closest report is Palenque International Airport, 38.6 nm (71.4 km) N. Retrieved 2020/09/24 14:17 UTC (16 hours ago):

MMPQ 241417Z RTD 00000KT 5SM SCT200 27/24 A2982 RMK 8/008 HZY

Closest aviation forecast (TAF) to San Luis de Ocosingo Airport

Forecast is more than 6 hours old.

Closest forecast is Palenque International Airport, 38.6 nm (71.4 km) N. Retrieved 2020/09/24 18:04 UTC (12 hours ago):

TAF MMPQ 241704Z 2418/2518 03005KT 6SM HZ SCT030 SCT220 BECMG 2420/2421 03012KT BKN020CB BKN100 TEMPO 2422/2502 5SM TSRA FM250300 00000KT 6SM HZ SCT020 BKN100 BECMG 2512/2513 24005KT 5SM HZ